NCAR-RAP Real-Time Weather Data

Output produced by METARs form (01 December 2020  17:36 UTC)
found at http://weather.rap.ucar.edu/surface/
 
KTXK 011653Z 22008KT 10SM CLR 10/M06 A3023 RMK AO2 SLP238 T01001061
KTXK 011553Z 20006KT 10SM CLR 08/M05 A3024 RMK AO2 SLP242 T00781050
KTXK 011453Z 22005KT 10SM CLR 04/M03 A3024 RMK AO2 SLP240 T00441028 53007
KTXK 011353Z 20003KT 10SM CLR 00/M04 A3022 RMK AO2 SLP235 T00001044
KTXK 011253Z 00000KT 10SM CLR M02/M06 A3022 RMK AO2 SLP235 T10221056
KTXK 011153Z 19003KT 10SM CLR M02/M06 A3022 RMK AO2 SLP233 T10221056 10006 21033 56007
KTXK 011053Z AUTO 18003KT 10SM CLR M02/M05 A3022 RMK AO2 SLP233 T10171050
KTXK 010953Z AUTO 21003KT 10SM CLR M01/M06 A3023 RMK AO2 SLP237 T10111061
KTXK 010853Z AUTO 22003KT 10SM CLR M02/M06 A3024 RMK AO2 SLP241 T10171061 56004
KTXK 010753Z AUTO 21005KT 10SM CLR M01/M06 A3024 RMK AO2 SLP241 T10111061
KTXK 010653Z AUTO 21005KT 10SM CLR M01/M06 A3025 RMK AO2 SLP243 T10061061
KTXK 010553Z AUTO 22005KT 10SM CLR M01/M06 A3025 RMK AO2 SLP245 T10111056 10067 21011 401061011 58002
KTXK 010453Z AUTO 23004KT 10SM CLR 00/M05 A3026 RMK AO2 SLP247 T00001050